sensor_id;sensor_type;location;lat;lon;timestamp;P1;durP1;ratioP1;P2;durP2;ratioP2
71462;SDS011;59266;52.608;13.260;2023-07-30T00:00:29;9.05;;;4.03;;
71462;SDS011;59266;52.608;13.260;2023-07-30T00:02:55;8.80;;;3.88;;
71462;SDS011;59266;52.608;13.260;2023-07-30T00:05:22;9.15;;;4.30;;
71462;SDS011;59266;52.608;13.260;2023-07-30T00:07:49;16.05;;;6.00;;
71462;SDS011;59266;52.608;13.260;2023-07-30T00:10:16;13.23;;;4.32;;
71462;SDS011;59266;52.608;13.260;2023-07-30T00:12:43;9.00;;;4.18;;
71462;SDS011;59266;52.608;13.260;2023-07-30T00:15:10;10.32;;;4.40;;
71462;SDS011;59266;52.608;13.260;2023-07-30T00:17:37;11.27;;;4.20;;
71462;SDS011;59266;52.608;13.260;2023-07-30T00:20:03;12.20;;;5.20;;
71462;SDS011;59266;52.608;13.260;2023-07-30T00:22:31;11.95;;;4.45;;
71462;SDS011;59266;52.608;13.260;2023-07-30T00:24:58;12.35;;;4.88;;
71462;SDS011;59266;52.608;13.260;2023-07-30T00:27:24;12.25;;;5.18;;
71462;SDS011;59266;52.608;13.260;2023-07-30T00:29:51;8.30;;;4.45;;
71462;SDS011;59266;52.608;13.260;2023-07-30T00:32:17;10.20;;;4.72;;
71462;SDS011;59266;52.608;13.260;2023-07-30T00:34:44;10.60;;;4.65;;
71462;SDS011;59266;52.608;13.260;2023-07-30T00:37:11;14.52;;;5.57;;
71462;SDS011;59266;52.608;13.260;2023-07-30T00:39:37;10.40;;;4.68;;
71462;SDS011;59266;52.608;13.260;2023-07-30T00:42:04;9.35;;;4.43;;
71462;SDS011;59266;52.608;13.260;2023-07-30T00:44:31;14.10;;;4.93;;
71462;SDS011;59266;52.608;13.260;2023-07-30T00:46:58;15.25;;;4.97;;
71462;SDS011;59266;52.608;13.260;2023-07-30T00:49:24;17.20;;;5.43;;
71462;SDS011;59266;52.608;13.260;2023-07-30T00:51:51;10.70;;;5.00;;
71462;SDS011;59266;52.608;13.260;2023-07-30T00:54:20;10.13;;;4.93;;
71462;SDS011;59266;52.608;13.260;2023-07-30T00:56:49;13.43;;;5.05;;
71462;SDS011;59266;52.608;13.260;2023-07-30T00:59:17;10.73;;;4.97;;
71462;SDS011;59266;52.608;13.260;2023-07-30T01:01:44;12.30;;;4.60;;
71462;SDS011;59266;52.608;13.260;2023-07-30T01:04:15;9.02;;;4.07;;
71462;SDS011;59266;52.608;13.260;2023-07-30T01:06:42;21.25;;;6.22;;
71462;SDS011;59266;52.608;13.260;2023-07-30T01:09:09;11.85;;;4.70;;
71462;SDS011;59266;52.608;13.260;2023-07-30T01:11:36;13.70;;;4.63;;
71462;SDS011;59266;52.608;13.260;2023-07-30T01:14:05;10.82;;;5.10;;
71462;SDS011;59266;52.608;13.260;2023-07-30T01:16:32;10.40;;;4.93;;
71462;SDS011;59266;52.608;13.260;2023-07-30T01:18:59;14.10;;;5.30;;
71462;SDS011;59266;52.608;13.260;2023-07-30T01:23:58;12.75;;;5.05;;
71462;SDS011;59266;52.608;13.260;2023-07-30T01:26:36;12.70;;;5.47;;
71462;SDS011;59266;52.608;13.260;2023-07-30T01:29:07;11.25;;;4.72;;
71462;SDS011;59266;52.608;13.260;2023-07-30T01:31:41;12.75;;;5.53;;
71462;SDS011;59266;52.608;13.260;2023-07-30T01:34:10;14.27;;;5.50;;
71462;SDS011;59266;52.608;13.260;2023-07-30T01:36:38;13.10;;;5.25;;
71462;SDS011;59266;52.608;13.260;2023-07-30T01:39:06;12.18;;;4.90;;
71462;SDS011;59266;52.608;13.260;2023-07-30T01:41:34;16.17;;;5.32;;
71462;SDS011;59266;52.608;13.260;2023-07-30T01:44:02;11.52;;;4.20;;
71462;SDS011;59266;52.608;13.260;2023-07-30T01:46:28;9.90;;;4.57;;
71462;SDS011;59266;52.608;13.260;2023-07-30T01:48:55;10.13;;;5.13;;
71462;SDS011;59266;52.608;13.260;2023-07-30T01:51:21;9.35;;;4.28;;
71462;SDS011;59266;52.608;13.260;2023-07-30T01:53:48;12.45;;;4.82;;
71462;SDS011;59266;52.608;13.260;2023-07-30T01:56:16;9.35;;;4.10;;
71462;SDS011;59266;52.608;13.260;2023-07-30T01:58:42;9.23;;;4.82;;
71462;SDS011;59266;52.608;13.260;2023-07-30T02:01:09;13.68;;;5.53;;
71462;SDS011;59266;52.608;13.260;2023-07-30T02:03:35;14.32;;;5.20;;
71462;SDS011;59266;52.608;13.260;2023-07-30T02:06:02;12.50;;;4.63;;
71462;SDS011;59266;52.608;13.260;2023-07-30T02:08:29;13.35;;;5.45;;
71462;SDS011;59266;52.608;13.260;2023-07-30T02:10:56;14.38;;;5.10;;
71462;SDS011;59266;52.608;13.260;2023-07-30T02:13:23;18.63;;;6.00;;
71462;SDS011;59266;52.608;13.260;2023-07-30T02:15:51;8.98;;;4.85;;
71462;SDS011;59266;52.608;13.260;2023-07-30T02:18:18;9.45;;;4.55;;
71462;SDS011;59266;52.608;13.260;2023-07-30T02:20:45;11.70;;;4.88;;
71462;SDS011;59266;52.608;13.260;2023-07-30T02:23:13;11.23;;;4.53;;
71462;SDS011;59266;52.608;13.260;2023-07-30T02:25:40;10.00;;;4.93;;
71462;SDS011;59266;52.608;13.260;2023-07-30T02:28:07;11.65;;;5.03;;
71462;SDS011;59266;52.608;13.260;2023-07-30T02:30:34;10.95;;;5.20;;
71462;SDS011;59266;52.608;13.260;2023-07-30T02:33:01;18.17;;;5.50;;
71462;SDS011;59266;52.608;13.260;2023-07-30T02:35:28;15.75;;;5.15;;
71462;SDS011;59266;52.608;13.260;2023-07-30T02:37:54;13.32;;;5.53;;
71462;SDS011;59266;52.608;13.260;2023-07-30T02:40:21;9.40;;;4.57;;
71462;SDS011;59266;52.608;13.260;2023-07-30T02:42:48;13.52;;;5.47;;
71462;SDS011;59266;52.608;13.260;2023-07-30T02:45:14;10.45;;;4.95;;
71462;SDS011;59266;52.608;13.260;2023-07-30T02:47:41;11.35;;;4.85;;
71462;SDS011;59266;52.608;13.260;2023-07-30T02:50:08;11.20;;;5.00;;
71462;SDS011;59266;52.608;13.260;2023-07-30T02:52:34;24.33;;;5.32;;
71462;SDS011;59266;52.608;13.260;2023-07-30T02:55:01;12.73;;;5.18;;
71462;SDS011;59266;52.608;13.260;2023-07-30T02:57:28;11.63;;;4.75;;
71462;SDS011;59266;52.608;13.260;2023-07-30T02:59:55;11.55;;;5.32;;
71462;SDS011;59266;52.608;13.260;2023-07-30T03:02:21;11.27;;;4.72;;
71462;SDS011;59266;52.608;13.260;2023-07-30T03:04:48;10.48;;;4.65;;
71462;SDS011;59266;52.608;13.260;2023-07-30T03:07:15;11.23;;;5.50;;
71462;SDS011;59266;52.608;13.260;2023-07-30T03:09:41;10.00;;;4.60;;
71462;SDS011;59266;52.608;13.260;2023-07-30T03:12:08;11.90;;;5.03;;
71462;SDS011;59266;52.608;13.260;2023-07-30T03:14:35;12.07;;;5.20;;
71462;SDS011;59266;52.608;13.260;2023-07-30T03:17:02;10.63;;;4.40;;
71462;SDS011;59266;52.608;13.260;2023-07-30T03:19:29;14.27;;;5.18;;
71462;SDS011;59266;52.608;13.260;2023-07-30T03:21:55;10.48;;;4.47;;
71462;SDS011;59266;52.608;13.260;2023-07-30T03:24:22;14.98;;;5.13;;
71462;SDS011;59266;52.608;13.260;2023-07-30T03:26:49;10.15;;;4.90;;
71462;SDS011;59266;52.608;13.260;2023-07-30T03:29:15;10.93;;;4.60;;
71462;SDS011;59266;52.608;13.260;2023-07-30T03:31:42;9.68;;;4.63;;
71462;SDS011;59266;52.608;13.260;2023-07-30T03:34:09;13.13;;;5.25;;
71462;SDS011;59266;52.608;13.260;2023-07-30T03:36:35;9.60;;;4.47;;
71462;SDS011;59266;52.608;13.260;2023-07-30T03:39:02;11.00;;;4.45;;
71462;SDS011;59266;52.608;13.260;2023-07-30T03:41:28;13.35;;;4.80;;
71462;SDS011;59266;52.608;13.260;2023-07-30T03:43:55;9.93;;;5.05;;
71462;SDS011;59266;52.608;13.260;2023-07-30T03:46:22;12.68;;;5.68;;
71462;SDS011;59266;52.608;13.260;2023-07-30T03:48:50;8.85;;;4.63;;
71462;SDS011;59266;52.608;13.260;2023-07-30T03:51:17;13.73;;;5.00;;
71462;SDS011;59266;52.608;13.260;2023-07-30T03:53:43;13.32;;;5.22;;
71462;SDS011;59266;52.608;13.260;2023-07-30T03:56:10;9.55;;;4.90;;
71462;SDS011;59266;52.608;13.260;2023-07-30T03:58:36;13.60;;;4.18;;
71462;SDS011;59266;52.608;13.260;2023-07-30T04:01:03;10.25;;;5.10;;
71462;SDS011;59266;52.608;13.260;2023-07-30T04:03:29;9.65;;;4.50;;
71462;SDS011;59266;52.608;13.260;2023-07-30T04:05:56;12.15;;;4.90;;
71462;SDS011;59266;52.608;13.260;2023-07-30T04:08:26;10.68;;;4.97;;
71462;SDS011;59266;52.608;13.260;2023-07-30T04:10:53;11.55;;;4.93;;
71462;SDS011;59266;52.608;13.260;2023-07-30T04:13:19;16.10;;;5.57;;
71462;SDS011;59266;52.608;13.260;2023-07-30T04:15:47;14.27;;;5.68;;
71462;SDS011;59266;52.608;13.260;2023-07-30T04:18:14;10.77;;;5.20;;
71462;SDS011;59266;52.608;13.260;2023-07-30T04:20:40;10.65;;;6.10;;
71462;SDS011;59266;52.608;13.260;2023-07-30T04:23:07;10.18;;;5.30;;
71462;SDS011;59266;52.608;13.260;2023-07-30T04:25:33;14.48;;;5.45;;
71462;SDS011;59266;52.608;13.260;2023-07-30T04:28:00;16.48;;;5.20;;
71462;SDS011;59266;52.608;13.260;2023-07-30T04:30:27;9.27;;;5.40;;
71462;SDS011;59266;52.608;13.260;2023-07-30T04:32:57;11.48;;;5.68;;
71462;SDS011;59266;52.608;13.260;2023-07-30T04:35:24;10.90;;;5.32;;
71462;SDS011;59266;52.608;13.260;2023-07-30T04:37:50;9.80;;;4.97;;
71462;SDS011;59266;52.608;13.260;2023-07-30T04:40:17;11.27;;;5.47;;
71462;SDS011;59266;52.608;13.260;2023-07-30T04:42:43;17.35;;;5.32;;
71462;SDS011;59266;52.608;13.260;2023-07-30T04:45:10;11.25;;;5.32;;
71462;SDS011;59266;52.608;13.260;2023-07-30T04:47:37;9.43;;;5.38;;
71462;SDS011;59266;52.608;13.260;2023-07-30T04:50:04;11.23;;;6.38;;
71462;SDS011;59266;52.608;13.260;2023-07-30T04:52:31;10.98;;;6.35;;
71462;SDS011;59266;52.608;13.260;2023-07-30T04:54:58;10.45;;;6.32;;
71462;SDS011;59266;52.608;13.260;2023-07-30T04:57:25;10.23;;;6.25;;
71462;SDS011;59266;52.608;13.260;2023-07-30T04:59:52;8.85;;;5.75;;
71462;SDS011;59266;52.608;13.260;2023-07-30T05:02:18;11.50;;;6.20;;
71462;SDS011;59266;52.608;13.260;2023-07-30T05:04:45;9.65;;;6.15;;
71462;SDS011;59266;52.608;13.260;2023-07-30T05:07:12;9.40;;;5.85;;
71462;SDS011;59266;52.608;13.260;2023-07-30T05:09:38;11.40;;;6.05;;
71462;SDS011;59266;52.608;13.260;2023-07-30T05:12:05;9.07;;;5.57;;
71462;SDS011;59266;52.608;13.260;2023-07-30T05:14:32;9.65;;;5.57;;
71462;SDS011;59266;52.608;13.260;2023-07-30T05:16:59;8.48;;;5.00;;
71462;SDS011;59266;52.608;13.260;2023-07-30T05:19:25;8.25;;;4.90;;
71462;SDS011;59266;52.608;13.260;2023-07-30T05:21:52;7.80;;;4.47;;
71462;SDS011;59266;52.608;13.260;2023-07-30T05:24:19;15.30;;;5.20;;
71462;SDS011;59266;52.608;13.260;2023-07-30T05:26:45;10.98;;;4.20;;
71462;SDS011;59266;52.608;13.260;2023-07-30T05:29:12;8.35;;;4.57;;
71462;SDS011;59266;52.608;13.260;2023-07-30T05:31:38;7.50;;;4.20;;
71462;SDS011;59266;52.608;13.260;2023-07-30T05:34:06;7.93;;;4.82;;
71462;SDS011;59266;52.608;13.260;2023-07-30T05:36:32;8.10;;;4.13;;
71462;SDS011;59266;52.608;13.260;2023-07-30T05:39:02;7.10;;;3.78;;
71462;SDS011;59266;52.608;13.260;2023-07-30T05:41:29;8.77;;;3.72;;
71462;SDS011;59266;52.608;13.260;2023-07-30T05:43:55;7.70;;;3.40;;
71462;SDS011;59266;52.608;13.260;2023-07-30T05:46:22;8.07;;;4.05;;
71462;SDS011;59266;52.608;13.260;2023-07-30T05:48:48;8.05;;;3.90;;
71462;SDS011;59266;52.608;13.260;2023-07-30T05:51:15;9.38;;;4.10;;
71462;SDS011;59266;52.608;13.260;2023-07-30T05:53:42;10.18;;;3.30;;
71462;SDS011;59266;52.608;13.260;2023-07-30T05:56:08;8.77;;;3.60;;
71462;SDS011;59266;52.608;13.260;2023-07-30T05:58:36;7.13;;;3.25;;
71462;SDS011;59266;52.608;13.260;2023-07-30T06:01:02;6.57;;;3.40;;
71462;SDS011;59266;52.608;13.260;2023-07-30T06:03:29;6.63;;;3.35;;
71462;SDS011;59266;52.608;13.260;2023-07-30T06:05:56;7.88;;;3.40;;
71462;SDS011;59266;52.608;13.260;2023-07-30T06:08:22;6.18;;;3.13;;
71462;SDS011;59266;52.608;13.260;2023-07-30T06:10:49;7.47;;;3.17;;
71462;SDS011;59266;52.608;13.260;2023-07-30T06:13:16;7.25;;;3.15;;
71462;SDS011;59266;52.608;13.260;2023-07-30T06:15:42;6.90;;;2.88;;
71462;SDS011;59266;52.608;13.260;2023-07-30T06:18:09;8.23;;;3.10;;
71462;SDS011;59266;52.608;13.260;2023-07-30T06:20:36;5.20;;;2.47;;
71462;SDS011;59266;52.608;13.260;2023-07-30T06:23:03;5.03;;;2.20;;
71462;SDS011;59266;52.608;13.260;2023-07-30T06:25:30;8.02;;;2.47;;
71462;SDS011;59266;52.608;13.260;2023-07-30T06:27:58;5.80;;;2.35;;
71462;SDS011;59266;52.608;13.260;2023-07-30T06:30:25;6.50;;;2.30;;
71462;SDS011;59266;52.608;13.260;2023-07-30T06:32:51;5.95;;;2.88;;
71462;SDS011;59266;52.608;13.260;2023-07-30T06:35:18;6.30;;;2.45;;
71462;SDS011;59266;52.608;13.260;2023-07-30T06:37:45;6.72;;;2.70;;
71462;SDS011;59266;52.608;13.260;2023-07-30T06:40:11;5.65;;;2.75;;
71462;SDS011;59266;52.608;13.260;2023-07-30T06:42:38;4.75;;;2.00;;
71462;SDS011;59266;52.608;13.260;2023-07-30T06:45:05;6.35;;;2.30;;
71462;SDS011;59266;52.608;13.260;2023-07-30T06:47:32;5.78;;;2.10;;
71462;SDS011;59266;52.608;13.260;2023-07-30T06:50:02;5.68;;;2.20;;
71462;SDS011;59266;52.608;13.260;2023-07-30T06:52:30;5.63;;;2.03;;
71462;SDS011;59266;52.608;13.260;2023-07-30T06:54:56;5.18;;;2.28;;
71462;SDS011;59266;52.608;13.260;2023-07-30T06:57:23;5.35;;;2.10;;
71462;SDS011;59266;52.608;13.260;2023-07-30T06:59:49;5.18;;;1.90;;
71462;SDS011;59266;52.608;13.260;2023-07-30T07:02:16;5.80;;;1.85;;
71462;SDS011;59266;52.608;13.260;2023-07-30T07:04:43;5.93;;;2.25;;
71462;SDS011;59266;52.608;13.260;2023-07-30T07:07:12;5.60;;;2.40;;
71462;SDS011;59266;52.608;13.260;2023-07-30T07:09:38;6.65;;;2.08;;
71462;SDS011;59266;52.608;13.260;2023-07-30T07:12:05;5.82;;;2.30;;
71462;SDS011;59266;52.608;13.260;2023-07-30T07:14:32;7.25;;;2.35;;
71462;SDS011;59266;52.608;13.260;2023-07-30T07:16:59;5.35;;;2.20;;
71462;SDS011;59266;52.608;13.260;2023-07-30T07:19:26;4.40;;;1.90;;
71462;SDS011;59266;52.608;13.260;2023-07-30T07:21:52;6.28;;;2.10;;
71462;SDS011;59266;52.608;13.260;2023-07-30T07:24:20;6.00;;;2.20;;
71462;SDS011;59266;52.608;13.260;2023-07-30T07:26:47;6.10;;;1.90;;
71462;SDS011;59266;52.608;13.260;2023-07-30T07:29:14;4.40;;;2.03;;
71462;SDS011;59266;52.608;13.260;2023-07-30T07:31:40;6.22;;;2.25;;
71462;SDS011;59266;52.608;13.260;2023-07-30T07:34:07;4.68;;;1.83;;
71462;SDS011;59266;52.608;13.260;2023-07-30T07:36:34;5.03;;;2.10;;
71462;SDS011;59266;52.608;13.260;2023-07-30T07:39:01;5.18;;;1.90;;
71462;SDS011;59266;52.608;13.260;2023-07-30T07:41:28;5.28;;;2.17;;
71462;SDS011;59266;52.608;13.260;2023-07-30T07:43:54;6.45;;;2.20;;
71462;SDS011;59266;52.608;13.260;2023-07-30T07:46:21;6.97;;;2.00;;
71462;SDS011;59266;52.608;13.260;2023-07-30T07:48:48;6.80;;;2.10;;
71462;SDS011;59266;52.608;13.260;2023-07-30T07:51:15;5.53;;;2.33;;
71462;SDS011;59266;52.608;13.260;2023-07-30T07:53:50;6.47;;;2.22;;
71462;SDS011;59266;52.608;13.260;2023-07-30T07:56:16;7.93;;;2.40;;
71462;SDS011;59266;52.608;13.260;2023-07-30T07:58:43;5.68;;;2.17;;
71462;SDS011;59266;52.608;13.260;2023-07-30T08:01:10;5.13;;;2.10;;
71462;SDS011;59266;52.608;13.260;2023-07-30T08:03:36;4.53;;;1.80;;
71462;SDS011;59266;52.608;13.260;2023-07-30T08:06:03;6.55;;;2.10;;
71462;SDS011;59266;52.608;13.260;2023-07-30T08:08:29;6.70;;;1.95;;
71462;SDS011;59266;52.608;13.260;2023-07-30T08:10:56;6.90;;;2.10;;
71462;SDS011;59266;52.608;13.260;2023-07-30T08:13:23;5.03;;;1.92;;
71462;SDS011;59266;52.608;13.260;2023-07-30T08:15:50;5.25;;;1.85;;
71462;SDS011;59266;52.608;13.260;2023-07-30T08:18:17;5.00;;;1.80;;
71462;SDS011;59266;52.608;13.260;2023-07-30T08:20:46;5.35;;;1.88;;
71462;SDS011;59266;52.608;13.260;2023-07-30T08:23:13;4.65;;;1.88;;
71462;SDS011;59266;52.608;13.260;2023-07-30T08:25:41;5.90;;;1.85;;
71462;SDS011;59266;52.608;13.260;2023-07-30T08:28:08;6.80;;;1.83;;
71462;SDS011;59266;52.608;13.260;2023-07-30T08:30:35;6.10;;;2.03;;
71462;SDS011;59266;52.608;13.260;2023-07-30T08:33:02;7.68;;;2.28;;
71462;SDS011;59266;52.608;13.260;2023-07-30T08:35:32;6.15;;;1.90;;
71462;SDS011;59266;52.608;13.260;2023-07-30T08:37:59;5.13;;;2.00;;
71462;SDS011;59266;52.608;13.260;2023-07-30T08:40:26;6.18;;;1.98;;
71462;SDS011;59266;52.608;13.260;2023-07-30T08:42:52;7.22;;;2.08;;
71462;SDS011;59266;52.608;13.260;2023-07-30T08:45:20;5.15;;;1.80;;
71462;SDS011;59266;52.608;13.260;2023-07-30T08:47:49;8.00;;;1.98;;
71462;SDS011;59266;52.608;13.260;2023-07-30T08:50:16;6.25;;;2.00;;
71462;SDS011;59266;52.608;13.260;2023-07-30T08:52:43;4.75;;;2.03;;
71462;SDS011;59266;52.608;13.260;2023-07-30T08:55:10;5.68;;;1.92;;
71462;SDS011;59266;52.608;13.260;2023-07-30T08:57:40;6.63;;;2.05;;
71462;SDS011;59266;52.608;13.260;2023-07-30T09:00:09;5.25;;;1.77;;
71462;SDS011;59266;52.608;13.260;2023-07-30T09:02:38;7.30;;;1.88;;
71462;SDS011;59266;52.608;13.260;2023-07-30T09:05:13;5.63;;;1.88;;
71462;SDS011;59266;52.608;13.260;2023-07-30T09:07:40;4.88;;;1.75;;
71462;SDS011;59266;52.608;13.260;2023-07-30T09:10:08;5.40;;;2.10;;
71462;SDS011;59266;52.608;13.260;2023-07-30T09:12:35;4.45;;;1.63;;
71462;SDS011;59266;52.608;13.260;2023-07-30T09:15:03;5.57;;;1.75;;
71462;SDS011;59266;52.608;13.260;2023-07-30T09:17:31;5.57;;;1.80;;
71462;SDS011;59266;52.608;13.260;2023-07-30T09:19:59;5.63;;;2.08;;
71462;SDS011;59266;52.608;13.260;2023-07-30T09:22:27;5.85;;;1.80;;
71462;SDS011;59266;52.608;13.260;2023-07-30T09:24:55;9.00;;;1.88;;
71462;SDS011;59266;52.608;13.260;2023-07-30T09:27:23;4.72;;;1.70;;
71462;SDS011;59266;52.608;13.260;2023-07-30T09:29:54;5.80;;;1.65;;
71462;SDS011;59266;52.608;13.260;2023-07-30T09:32:26;6.68;;;1.80;;
71462;SDS011;59266;52.608;13.260;2023-07-30T09:34:54;6.13;;;1.80;;
71462;SDS011;59266;52.608;13.260;2023-07-30T09:37:21;6.40;;;2.08;;
71462;SDS011;59266;52.608;13.260;2023-07-30T09:39:48;5.95;;;1.70;;
71462;SDS011;59266;52.608;13.260;2023-07-30T09:42:14;7.38;;;2.05;;
71462;SDS011;59266;52.608;13.260;2023-07-30T09:44:41;6.38;;;1.70;;
71462;SDS011;59266;52.608;13.260;2023-07-30T09:47:10;7.20;;;1.90;;
71462;SDS011;59266;52.608;13.260;2023-07-30T09:49:38;4.63;;;1.80;;
71462;SDS011;59266;52.608;13.260;2023-07-30T09:52:06;5.70;;;1.67;;
71462;SDS011;59266;52.608;13.260;2023-07-30T09:54:33;6.32;;;2.03;;
71462;SDS011;59266;52.608;13.260;2023-07-30T09:56:59;6.15;;;1.95;;
71462;SDS011;59266;52.608;13.260;2023-07-30T09:59:26;6.20;;;1.83;;
71462;SDS011;59266;52.608;13.260;2023-07-30T10:01:53;6.85;;;1.98;;
71462;SDS011;59266;52.608;13.260;2023-07-30T10:04:22;7.97;;;2.10;;
71462;SDS011;59266;52.608;13.260;2023-07-30T10:07:01;7.80;;;2.20;;
71462;SDS011;59266;52.608;13.260;2023-07-30T10:09:35;5.80;;;1.80;;
71462;SDS011;59266;52.608;13.260;2023-07-30T10:12:10;7.05;;;1.70;;
71462;SDS011;59266;52.608;13.260;2023-07-30T10:14:42;9.32;;;2.08;;
71462;SDS011;59266;52.608;13.260;2023-07-30T10:17:10;7.30;;;1.80;;
71462;SDS011;59266;52.608;13.260;2023-07-30T10:19:39;8.75;;;1.90;;
71462;SDS011;59266;52.608;13.260;2023-07-30T10:24:57;5.95;;;1.88;;
71462;SDS011;59266;52.608;13.260;2023-07-30T10:27:41;6.20;;;1.75;;
71462;SDS011;59266;52.608;13.260;2023-07-30T10:30:13;5.50;;;1.90;;
71462;SDS011;59266;52.608;13.260;2023-07-30T10:35:40;6.25;;;1.70;;
71462;SDS011;59266;52.608;13.260;2023-07-30T10:38:14;5.47;;;2.00;;
71462;SDS011;59266;52.608;13.260;2023-07-30T10:40:41;5.43;;;1.90;;
71462;SDS011;59266;52.608;13.260;2023-07-30T10:43:14;5.32;;;1.63;;
71462;SDS011;59266;52.608;13.260;2023-07-30T10:45:50;7.85;;;2.10;;
71462;SDS011;59266;52.608;13.260;2023-07-30T10:48:17;5.30;;;1.85;;
71462;SDS011;59266;52.608;13.260;2023-07-30T10:50:44;5.57;;;1.92;;
71462;SDS011;59266;52.608;13.260;2023-07-30T10:53:14;7.18;;;2.10;;
71462;SDS011;59266;52.608;13.260;2023-07-30T10:55:43;6.53;;;2.28;;
71462;SDS011;59266;52.608;13.260;2023-07-30T10:58:11;11.77;;;1.98;;
71462;SDS011;59266;52.608;13.260;2023-07-30T11:00:37;10.60;;;2.22;;
71462;SDS011;59266;52.608;13.260;2023-07-30T11:03:04;4.93;;;1.70;;
71462;SDS011;59266;52.608;13.260;2023-07-30T11:05:32;8.73;;;2.30;;
71462;SDS011;59266;52.608;13.260;2023-07-30T11:08:02;6.72;;;2.00;;
71462;SDS011;59266;52.608;13.260;2023-07-30T11:10:29;6.57;;;1.65;;
71462;SDS011;59266;52.608;13.260;2023-07-30T11:12:56;7.97;;;2.25;;
71462;SDS011;59266;52.608;13.260;2023-07-30T11:15:26;8.45;;;2.20;;
71462;SDS011;59266;52.608;13.260;2023-07-30T11:17:52;5.93;;;1.95;;
71462;SDS011;59266;52.608;13.260;2023-07-30T11:20:23;9.88;;;2.70;;
71462;SDS011;59266;52.608;13.260;2023-07-30T11:22:52;9.43;;;2.47;;
71462;SDS011;59266;52.608;13.260;2023-07-30T11:25:20;8.35;;;1.95;;
71462;SDS011;59266;52.608;13.260;2023-07-30T11:27:47;6.97;;;2.08;;
71462;SDS011;59266;52.608;13.260;2023-07-30T11:30:18;7.43;;;2.10;;
71462;SDS011;59266;52.608;13.260;2023-07-30T11:32:45;11.63;;;3.00;;
71462;SDS011;59266;52.608;13.260;2023-07-30T11:35:12;9.20;;;1.98;;
71462;SDS011;59266;52.608;13.260;2023-07-30T11:37:42;8.85;;;2.88;;
71462;SDS011;59266;52.608;13.260;2023-07-30T11:40:09;7.28;;;1.88;;
71462;SDS011;59266;52.608;13.260;2023-07-30T11:42:37;13.07;;;2.05;;
71462;SDS011;59266;52.608;13.260;2023-07-30T11:45:20;12.93;;;3.58;;
71462;SDS011;59266;52.608;13.260;2023-07-30T11:47:49;72.40;;;22.65;;
71462;SDS011;59266;52.608;13.260;2023-07-30T11:50:16;17.85;;;4.30;;
71462;SDS011;59266;52.608;13.260;2023-07-30T11:52:55;8.40;;;2.55;;
71462;SDS011;59266;52.608;13.260;2023-07-30T11:55:22;7.55;;;2.45;;
71462;SDS011;59266;52.608;13.260;2023-07-30T11:58:03;6.63;;;1.90;;
71462;SDS011;59266;52.608;13.260;2023-07-30T12:00:31;7.00;;;1.70;;
71462;SDS011;59266;52.608;13.260;2023-07-30T12:03:04;6.72;;;1.92;;
71462;SDS011;59266;52.608;13.260;2023-07-30T12:05:40;7.05;;;1.92;;
71462;SDS011;59266;52.608;13.260;2023-07-30T12:08:13;7.97;;;1.92;;
71462;SDS011;59266;52.608;13.260;2023-07-30T12:10:43;7.15;;;1.90;;
71462;SDS011;59266;52.608;13.260;2023-07-30T12:13:12;5.05;;;1.85;;
71462;SDS011;59266;52.608;13.260;2023-07-30T12:15:42;5.35;;;1.85;;
71462;SDS011;59266;52.608;13.260;2023-07-30T12:18:10;4.85;;;1.85;;
71462;SDS011;59266;52.608;13.260;2023-07-30T12:20:37;7.82;;;2.03;;
71462;SDS011;59266;52.608;13.260;2023-07-30T12:23:03;6.18;;;1.98;;
71462;SDS011;59266;52.608;13.260;2023-07-30T12:25:30;5.85;;;1.63;;
71462;SDS011;59266;52.608;13.260;2023-07-30T12:27:56;7.90;;;1.90;;
71462;SDS011;59266;52.608;13.260;2023-07-30T12:30:23;7.03;;;1.83;;
71462;SDS011;59266;52.608;13.260;2023-07-30T12:32:52;6.25;;;1.75;;
71462;SDS011;59266;52.608;13.260;2023-07-30T12:35:18;6.70;;;1.90;;
71462;SDS011;59266;52.608;13.260;2023-07-30T12:37:45;7.10;;;2.00;;
71462;SDS011;59266;52.608;13.260;2023-07-30T12:40:15;6.18;;;2.00;;
71462;SDS011;59266;52.608;13.260;2023-07-30T12:42:42;8.20;;;1.83;;
71462;SDS011;59266;52.608;13.260;2023-07-30T12:45:09;5.28;;;1.90;;
71462;SDS011;59266;52.608;13.260;2023-07-30T12:47:36;8.35;;;1.88;;
71462;SDS011;59266;52.608;13.260;2023-07-30T12:50:03;5.68;;;2.15;;
71462;SDS011;59266;52.608;13.260;2023-07-30T12:52:31;9.23;;;1.90;;
71462;SDS011;59266;52.608;13.260;2023-07-30T12:54:58;6.90;;;2.08;;
71462;SDS011;59266;52.608;13.260;2023-07-30T12:57:25;7.13;;;2.20;;
71462;SDS011;59266;52.608;13.260;2023-07-30T12:59:51;6.90;;;2.00;;
71462;SDS011;59266;52.608;13.260;2023-07-30T13:02:19;7.78;;;2.10;;
71462;SDS011;59266;52.608;13.260;2023-07-30T13:04:47;7.20;;;2.42;;
71462;SDS011;59266;52.608;13.260;2023-07-30T13:07:14;9.13;;;2.30;;
71462;SDS011;59266;52.608;13.260;2023-07-30T13:09:40;6.82;;;2.08;;
71462;SDS011;59266;52.608;13.260;2023-07-30T13:12:07;8.20;;;2.30;;
71462;SDS011;59266;52.608;13.260;2023-07-30T13:14:34;6.32;;;1.90;;
71462;SDS011;59266;52.608;13.260;2023-07-30T13:17:00;5.95;;;1.90;;
71462;SDS011;59266;52.608;13.260;2023-07-30T13:19:27;6.70;;;2.20;;
71462;SDS011;59266;52.608;13.260;2023-07-30T13:21:56;5.57;;;2.22;;
71462;SDS011;59266;52.608;13.260;2023-07-30T13:24:22;6.15;;;1.80;;
71462;SDS011;59266;52.608;13.260;2023-07-30T13:26:49;5.72;;;1.85;;
71462;SDS011;59266;52.608;13.260;2023-07-30T13:29:16;8.57;;;2.10;;
71462;SDS011;59266;52.608;13.260;2023-07-30T13:31:43;5.03;;;1.77;;
71462;SDS011;59266;52.608;13.260;2023-07-30T13:34:10;8.25;;;1.80;;
71462;SDS011;59266;52.608;13.260;2023-07-30T13:36:36;6.15;;;1.80;;
71462;SDS011;59266;52.608;13.260;2023-07-30T13:39:03;5.68;;;2.00;;
71462;SDS011;59266;52.608;13.260;2023-07-30T13:41:30;5.53;;;2.00;;
71462;SDS011;59266;52.608;13.260;2023-07-30T13:43:56;7.15;;;2.50;;
71462;SDS011;59266;52.608;13.260;2023-07-30T13:46:23;6.88;;;1.70;;
71462;SDS011;59266;52.608;13.260;2023-07-30T13:48:50;6.30;;;1.90;;
71462;SDS011;59266;52.608;13.260;2023-07-30T13:51:16;6.70;;;1.75;;
71462;SDS011;59266;52.608;13.260;2023-07-30T13:53:43;6.32;;;1.70;;
71462;SDS011;59266;52.608;13.260;2023-07-30T13:56:09;7.80;;;1.88;;
71462;SDS011;59266;52.608;13.260;2023-07-30T13:58:36;8.10;;;2.00;;
71462;SDS011;59266;52.608;13.260;2023-07-30T14:01:06;9.18;;;1.63;;
71462;SDS011;59266;52.608;13.260;2023-07-30T14:03:32;7.53;;;1.85;;
71462;SDS011;59266;52.608;13.260;2023-07-30T14:05:59;5.88;;;1.50;;
71462;SDS011;59266;52.608;13.260;2023-07-30T14:08:25;5.28;;;1.50;;
71462;SDS011;59266;52.608;13.260;2023-07-30T14:10:52;5.00;;;1.65;;
71462;SDS011;59266;52.608;13.260;2023-07-30T14:13:18;5.50;;;1.48;;
71462;SDS011;59266;52.608;13.260;2023-07-30T14:15:45;3.25;;;1.10;;
71462;SDS011;59266;52.608;13.260;2023-07-30T14:18:12;6.13;;;1.63;;
71462;SDS011;59266;52.608;13.260;2023-07-30T14:20:39;4.47;;;1.35;;
71462;SDS011;59266;52.608;13.260;2023-07-30T14:23:05;3.85;;;1.30;;
71462;SDS011;59266;52.608;13.260;2023-07-30T14:25:32;6.10;;;1.63;;
71462;SDS011;59266;52.608;13.260;2023-07-30T14:27:59;4.55;;;1.42;;
71462;SDS011;59266;52.608;13.260;2023-07-30T14:30:25;6.90;;;1.70;;
71462;SDS011;59266;52.608;13.260;2023-07-30T14:32:52;4.97;;;1.30;;
71462;SDS011;59266;52.608;13.260;2023-07-30T14:35:18;4.72;;;1.40;;
71462;SDS011;59266;52.608;13.260;2023-07-30T14:37:46;5.53;;;1.52;;
71462;SDS011;59266;52.608;13.260;2023-07-30T14:40:12;4.10;;;1.30;;